sensor_id;sensor_type;location;lat;lon;timestamp;pressure;altitude;pressure_sealevel;temperature;humidity
43503;BME280;29098;48.184;16.298;2023-02-13T00:00:53;101482.91;;;4.75;97.30
43503;BME280;29098;48.184;16.298;2023-02-13T00:03:19;101479.59;;;4.57;98.51
43503;BME280;29098;48.184;16.298;2023-02-13T00:05:44;101484.75;;;4.59;98.69
43503;BME280;29098;48.184;16.298;2023-02-13T00:08:09;101479.41;;;4.46;98.94
43503;BME280;29098;48.184;16.298;2023-02-13T00:10:35;101483.22;;;4.40;99.13
43503;BME280;29098;48.184;16.298;2023-02-13T00:13:01;101483.56;;;4.34;99.12
43503;BME280;29098;48.184;16.298;2023-02-13T00:15:26;101481.75;;;4.20;99.55
43503;BME280;29098;48.184;16.298;2023-02-13T00:17:52;101480.75;;;4.06;100.00
43503;BME280;29098;48.184;16.298;2023-02-13T00:20:17;101476.19;;;3.94;100.00
43503;BME280;29098;48.184;16.298;2023-02-13T00:22:42;101477.72;;;3.98;100.00
43503;BME280;29098;48.184;16.298;2023-02-13T00:25:08;101471.50;;;3.84;100.00
43503;BME280;29098;48.184;16.298;2023-02-13T00:27:33;101470.81;;;3.81;100.00
43503;BME280;29098;48.184;16.298;2023-02-13T00:29:58;101486.81;;;3.75;100.00
43503;BME280;29098;48.184;16.298;2023-02-13T00:32:24;101482.09;;;3.65;100.00
43503;BME280;29098;48.184;16.298;2023-02-13T00:34:49;101485.03;;;3.59;100.00
43503;BME280;29098;48.184;16.298;2023-02-13T00:37:15;101493.72;;;3.60;100.00
43503;BME280;29098;48.184;16.298;2023-02-13T00:39:40;101486.53;;;3.47;100.00
43503;BME280;29098;48.184;16.298;2023-02-13T00:42:05;101490.81;;;3.48;100.00
43503;BME280;29098;48.184;16.298;2023-02-13T00:44:31;101494.41;;;3.29;100.00
43503;BME280;29098;48.184;16.298;2023-02-13T00:46:56;101488.84;;;3.20;100.00
43503;BME280;29098;48.184;16.298;2023-02-13T00:49:22;101494.66;;;3.25;100.00
43503;BME280;29098;48.184;16.298;2023-02-13T00:51:47;101495.50;;;3.25;100.00
43503;BME280;29098;48.184;16.298;2023-02-13T00:54:12;101501.50;;;3.27;100.00
43503;BME280;29098;48.184;16.298;2023-02-13T00:56:38;101498.53;;;3.18;100.00
43503;BME280;29098;48.184;16.298;2023-02-13T00:59:03;101501.50;;;3.10;100.00
43503;BME280;29098;48.184;16.298;2023-02-13T01:01:29;101510.94;;;3.12;100.00
43503;BME280;29098;48.184;16.298;2023-02-13T01:03:54;101501.19;;;3.16;100.00
43503;BME280;29098;48.184;16.298;2023-02-13T01:06:20;101504.06;;;2.94;100.00
43503;BME280;29098;48.184;16.298;2023-02-13T01:08:45;101504.44;;;2.86;100.00
43503;BME280;29098;48.184;16.298;2023-02-13T01:11:10;101499.56;;;2.97;100.00
43503;BME280;29098;48.184;16.298;2023-02-13T01:13:36;101493.34;;;2.82;100.00
43503;BME280;29098;48.184;16.298;2023-02-13T01:16:01;101488.31;;;2.79;100.00
43503;BME280;29098;48.184;16.298;2023-02-13T01:18:28;101484.09;;;2.77;100.00
43503;BME280;29098;48.184;16.298;2023-02-13T01:21:00;101481.78;;;2.70;100.00
43503;BME280;29098;48.184;16.298;2023-02-13T01:23:29;101489.47;;;2.73;100.00
43503;BME280;29098;48.184;16.298;2023-02-13T01:25:54;101498.72;;;2.79;100.00
43503;BME280;29098;48.184;16.298;2023-02-13T01:28:19;101489.75;;;2.67;100.00
43503;BME280;29098;48.184;16.298;2023-02-13T01:30:51;101488.44;;;2.76;100.00
43503;BME280;29098;48.184;16.298;2023-02-13T01:33:16;101492.19;;;2.70;100.00
43503;BME280;29098;48.184;16.298;2023-02-13T01:35:42;101483.78;;;2.65;100.00
43503;BME280;29098;48.184;16.298;2023-02-13T01:38:07;101493.97;;;2.70;100.00
43503;BME280;29098;48.184;16.298;2023-02-13T01:40:32;101493.66;;;2.76;100.00
43503;BME280;29098;48.184;16.298;2023-02-13T01:42:58;101487.06;;;2.69;100.00
43503;BME280;29098;48.184;16.298;2023-02-13T01:45:25;101493.75;;;2.74;100.00
43503;BME280;29098;48.184;16.298;2023-02-13T01:47:55;101483.22;;;2.76;100.00
43503;BME280;29098;48.184;16.298;2023-02-13T01:53:07;101485.16;;;2.90;100.00
43503;BME280;29098;48.184;16.298;2023-02-13T01:55:34;101490.19;;;2.93;100.00
43503;BME280;29098;48.184;16.298;2023-02-13T01:58:03;101489.88;;;2.99;100.00
43503;BME280;29098;48.184;16.298;2023-02-13T02:00:31;101479.94;;;2.90;100.00
43503;BME280;29098;48.184;16.298;2023-02-13T02:02:58;101482.84;;;2.84;100.00
43503;BME280;29098;48.184;16.298;2023-02-13T02:05:26;101481.69;;;2.90;100.00
43503;BME280;29098;48.184;16.298;2023-02-13T02:07:53;101478.47;;;3.02;100.00
43503;BME280;29098;48.184;16.298;2023-02-13T02:10:20;101477.53;;;3.03;100.00
43503;BME280;29098;48.184;16.298;2023-02-13T02:15:10;101474.53;;;3.11;100.00
43503;BME280;29098;48.184;16.298;2023-02-13T02:17:36;101468.25;;;3.15;100.00
43503;BME280;29098;48.184;16.298;2023-02-13T02:22:43;101466.38;;;3.17;100.00
43503;BME280;29098;48.184;16.298;2023-02-13T02:25:17;101472.78;;;3.11;100.00
43503;BME280;29098;48.184;16.298;2023-02-13T02:27:52;101466.38;;;3.17;100.00
43503;BME280;29098;48.184;16.298;2023-02-13T02:30:27;101463.03;;;3.15;100.00
43503;BME280;29098;48.184;16.298;2023-02-13T02:38:12;101453.78;;;3.25;100.00
43503;BME280;29098;48.184;16.298;2023-02-13T02:40:51;101450.75;;;3.17;100.00
43503;BME280;29098;48.184;16.298;2023-02-13T02:48:41;101442.53;;;3.25;100.00
43503;BME280;29098;48.184;16.298;2023-02-13T02:51:28;101451.97;;;3.27;100.00
43503;BME280;29098;48.184;16.298;2023-02-13T02:56:33;101455.00;;;3.36;100.00
43503;BME280;29098;48.184;16.298;2023-02-13T02:59:12;101453.47;;;3.32;100.00
43503;BME280;29098;48.184;16.298;2023-02-13T03:01:58;101453.63;;;3.28;100.00
43503;BME280;29098;48.184;16.298;2023-02-13T03:04:47;101449.19;;;3.31;100.00
43503;BME280;29098;48.184;16.298;2023-02-13T03:07:34;101449.34;;;3.43;100.00
43503;BME280;29098;48.184;16.298;2023-02-13T03:10:04;101446.94;;;3.40;100.00
43503;BME280;29098;48.184;16.298;2023-02-13T03:15:40;101442.81;;;3.52;100.00
43503;BME280;29098;48.184;16.298;2023-02-13T03:18:24;101437.75;;;3.49;100.00
43503;BME280;29098;48.184;16.298;2023-02-13T03:21:12;101437.66;;;3.35;100.00
43503;BME280;29098;48.184;16.298;2023-02-13T03:24:44;101445.72;;;3.30;100.00
43503;BME280;29098;48.184;16.298;2023-02-13T03:29:31;101439.84;;;3.42;100.00
43503;BME280;29098;48.184;16.298;2023-02-13T03:34:48;101445.81;;;3.45;100.00
43503;BME280;29098;48.184;16.298;2023-02-13T03:37:38;101445.47;;;3.35;100.00
43503;BME280;29098;48.184;16.298;2023-02-13T03:40:22;101439.34;;;3.36;100.00
43503;BME280;29098;48.184;16.298;2023-02-13T03:45:29;101440.94;;;3.38;100.00
43503;BME280;29098;48.184;16.298;2023-02-13T03:48:15;101437.50;;;3.38;100.00
43503;BME280;29098;48.184;16.298;2023-02-13T03:51:01;101442.81;;;3.52;100.00
43503;BME280;29098;48.184;16.298;2023-02-13T03:53:27;101440.34;;;3.49;100.00
43503;BME280;29098;48.184;16.298;2023-02-13T03:55:55;101439.88;;;3.59;100.00
43503;BME280;29098;48.184;16.298;2023-02-13T03:58:42;101439.03;;;3.58;100.00
43503;BME280;29098;48.184;16.298;2023-02-13T04:01:28;101441.69;;;3.56;100.00
43503;BME280;29098;48.184;16.298;2023-02-13T04:03:59;101438.53;;;3.51;100.00
43503;BME280;29098;48.184;16.298;2023-02-13T04:06:49;101443.47;;;3.40;100.00
43503;BME280;29098;48.184;16.298;2023-02-13T04:09:16;101446.50;;;3.48;100.00
43503;BME280;29098;48.184;16.298;2023-02-13T04:14:24;101430.69;;;3.51;100.00
43503;BME280;29098;48.184;16.298;2023-02-13T04:16:53;101430.69;;;3.51;100.00
43503;BME280;29098;48.184;16.298;2023-02-13T04:19:20;101433.06;;;3.56;100.00
43503;BME280;29098;48.184;16.298;2023-02-13T04:21:48;101430.78;;;3.66;100.00
43503;BME280;29098;48.184;16.298;2023-02-13T04:24:14;101431.13;;;3.60;100.00
43503;BME280;29098;48.184;16.298;2023-02-13T04:26:40;101426.66;;;3.62;100.00
43503;BME280;29098;48.184;16.298;2023-02-13T04:29:06;101435.31;;;3.62;100.00
43503;BME280;29098;48.184;16.298;2023-02-13T04:31:32;101430.78;;;3.66;100.00
43503;BME280;29098;48.184;16.298;2023-02-13T04:33:57;101430.94;;;3.63;100.00
43503;BME280;29098;48.184;16.298;2023-02-13T04:36:23;101430.53;;;3.54;100.00
43503;BME280;29098;48.184;16.298;2023-02-13T04:38:48;101426.22;;;3.53;100.00
43503;BME280;29098;48.184;16.298;2023-02-13T04:41:14;101423.56;;;3.55;100.00
43503;BME280;29098;48.184;16.298;2023-02-13T04:43:39;101426.06;;;3.56;100.00
43503;BME280;29098;48.184;16.298;2023-02-13T04:46:05;101425.13;;;3.58;100.00
43503;BME280;29098;48.184;16.298;2023-02-13T04:48:30;101425.91;;;3.60;100.00
43503;BME280;29098;48.184;16.298;2023-02-13T04:50:55;101421.84;;;3.70;100.00
43503;BME280;29098;48.184;16.298;2023-02-13T04:53:20;101417.56;;;3.69;100.00
43503;BME280;29098;48.184;16.298;2023-02-13T04:55:46;101418.31;;;3.71;100.00
43503;BME280;29098;48.184;16.298;2023-02-13T04:58:11;101422.50;;;3.74;100.00
43503;BME280;29098;48.184;16.298;2023-02-13T05:00:37;101421.66;;;3.73;100.00
43503;BME280;29098;48.184;16.298;2023-02-13T05:03:06;101420.66;;;3.76;100.00
43503;BME280;29098;48.184;16.298;2023-02-13T05:05:32;101425.53;;;3.82;100.00
43503;BME280;29098;48.184;16.298;2023-02-13T05:07:58;101424.72;;;3.81;100.00
43503;BME280;29098;48.184;16.298;2023-02-13T05:10:23;101424.13;;;3.76;100.00
43503;BME280;29098;48.184;16.298;2023-02-13T05:12:48;101428.41;;;3.77;100.00
43503;BME280;29098;48.184;16.298;2023-02-13T05:15:14;101431.09;;;3.76;100.00
43503;BME280;29098;48.184;16.298;2023-02-13T05:17:42;101431.75;;;3.79;100.00
43503;BME280;29098;48.184;16.298;2023-02-13T05:20:07;101431.88;;;3.62;100.00
43503;BME280;29098;48.184;16.298;2023-02-13T05:22:33;101428.06;;;3.83;100.00
43503;BME280;29098;48.184;16.298;2023-02-13T05:25:17;101425.72;;;3.79;100.00
43503;BME280;29098;48.184;16.298;2023-02-13T05:27:42;101434.97;;;3.84;100.00
43503;BME280;29098;48.184;16.298;2023-02-13T05:30:08;101431.91;;;3.92;100.00
43503;BME280;29098;48.184;16.298;2023-02-13T05:32:33;101434.09;;;4.00;100.00
43503;BME280;29098;48.184;16.298;2023-02-13T05:34:58;101432.03;;;3.91;100.00
43503;BME280;29098;48.184;16.298;2023-02-13T05:37:24;101434.22;;;3.82;100.00
43503;BME280;29098;48.184;16.298;2023-02-13T05:39:49;101430.75;;;3.82;100.00
43503;BME280;29098;48.184;16.298;2023-02-13T05:42:14;101443.47;;;3.88;100.00
43503;BME280;29098;48.184;16.298;2023-02-13T05:44:40;101439.59;;;3.95;100.00
43503;BME280;29098;48.184;16.298;2023-02-13T05:47:05;101437.78;;;3.96;100.00
43503;BME280;29098;48.184;16.298;2023-02-13T05:49:31;101438.97;;;4.06;98.97
43503;BME280;29098;48.184;16.298;2023-02-13T05:51:56;101439.13;;;4.03;98.62
43503;BME280;29098;48.184;16.298;2023-02-13T05:54:21;101443.09;;;4.10;98.94
43503;BME280;29098;48.184;16.298;2023-02-13T05:56:47;101444.53;;;4.16;98.37
43503;BME280;29098;48.184;16.298;2023-02-13T05:59:12;101444.41;;;4.18;97.79
43503;BME280;29098;48.184;16.298;2023-02-13T06:01:38;101444.00;;;4.09;98.08
43503;BME280;29098;48.184;16.298;2023-02-13T06:04:03;101443.66;;;4.16;97.08
43503;BME280;29098;48.184;16.298;2023-02-13T06:06:29;101450.88;;;4.27;96.92
43503;BME280;29098;48.184;16.298;2023-02-13T06:08:54;101447.34;;;4.28;96.64
43503;BME280;29098;48.184;16.298;2023-02-13T06:11:20;101452.75;;;4.24;96.47
43503;BME280;29098;48.184;16.298;2023-02-13T06:13:45;101457.72;;;4.29;96.37
43503;BME280;29098;48.184;16.298;2023-02-13T06:16:11;101462.13;;;4.43;95.75
43503;BME280;29098;48.184;16.298;2023-02-13T06:18:37;101457.66;;;4.45;95.29
43503;BME280;29098;48.184;16.298;2023-02-13T06:21:03;101459.97;;;4.50;96.73
43503;BME280;29098;48.184;16.298;2023-02-13T06:23:29;101460.38;;;4.58;96.08
43503;BME280;29098;48.184;16.298;2023-02-13T06:25:54;101460.56;;;4.55;95.34
43503;BME280;29098;48.184;16.298;2023-02-13T06:28:20;101461.94;;;4.46;95.24
43503;BME280;29098;48.184;16.298;2023-02-13T06:30:46;101463.63;;;4.47;94.85
43503;BME280;29098;48.184;16.298;2023-02-13T06:33:11;101460.91;;;4.49;94.94
43503;BME280;29098;48.184;16.298;2023-02-13T06:35:37;101471.38;;;4.49;94.37
43503;BME280;29098;48.184;16.298;2023-02-13T06:38:02;101469.09;;;4.43;94.46
43503;BME280;29098;48.184;16.298;2023-02-13T06:40:28;101471.16;;;4.37;94.80
43503;BME280;29098;48.184;16.298;2023-02-13T06:42:53;101468.19;;;4.44;94.78
43503;BME280;29098;48.184;16.298;2023-02-13T06:45:18;101475.00;;;4.46;93.84
43503;BME280;29098;48.184;16.298;2023-02-13T06:47:44;101469.28;;;4.39;94.46
43503;BME280;29098;48.184;16.298;2023-02-13T06:50:11;101479.47;;;4.44;94.34
43503;BME280;29098;48.184;16.298;2023-02-13T06:52:37;101477.88;;;4.42;94.01
43503;BME280;29098;48.184;16.298;2023-02-13T06:55:02;101472.22;;;4.49;93.64
43503;BME280;29098;48.184;16.298;2023-02-13T06:57:29;101479.41;;;4.46;93.85
43503;BME280;29098;48.184;16.298;2023-02-13T06:59:57;101475.66;;;4.50;93.46
43503;BME280;29098;48.184;16.298;2023-02-13T07:02:22;101475.66;;;4.50;93.79
43503;BME280;29098;48.184;16.298;2023-02-13T07:04:48;101474.91;;;4.48;94.09
43503;BME280;29098;48.184;16.298;2023-02-13T07:07:13;101478.19;;;4.51;93.81
43503;BME280;29098;48.184;16.298;2023-02-13T07:09:39;101476.44;;;4.52;93.37
43503;BME280;29098;48.184;16.298;2023-02-13T07:12:05;101483.50;;;4.50;93.67
43503;BME280;29098;48.184;16.298;2023-02-13T07:14:30;101490.72;;;4.61;93.19
43503;BME280;29098;48.184;16.298;2023-02-13T07:16:56;101491.13;;;4.84;93.01
43503;BME280;29098;48.184;16.298;2023-02-13T07:19:21;101495.34;;;4.86;92.00
43503;BME280;29098;48.184;16.298;2023-02-13T07:21:46;101493.84;;;4.82;92.09
43503;BME280;29098;48.184;16.298;2023-02-13T07:24:12;101492.16;;;4.81;91.82
43503;BME280;29098;48.184;16.298;2023-02-13T07:26:37;101496.94;;;4.89;91.46
43503;BME280;29098;48.184;16.298;2023-02-13T07:29:03;101500.56;;;4.86;91.14
43503;BME280;29098;48.184;16.298;2023-02-13T07:31:31;101496.06;;;4.88;91.47
43503;BME280;29098;48.184;16.298;2023-02-13T07:33:56;101499.06;;;4.82;91.37
43503;BME280;29098;48.184;16.298;2023-02-13T07:36:22;101502.78;;;4.78;92.00
43503;BME280;29098;48.184;16.298;2023-02-13T07:38:47;101500.75;;;4.83;91.80
43503;BME280;29098;48.184;16.298;2023-02-13T07:41:12;101502.63;;;4.96;91.18
43503;BME280;29098;48.184;16.298;2023-02-13T07:43:38;101498.31;;;4.80;92.16
43503;BME280;29098;48.184;16.298;2023-02-13T07:46:03;101503.19;;;4.86;91.87
43503;BME280;29098;48.184;16.298;2023-02-13T07:48:29;101504.84;;;4.87;92.12
43503;BME280;29098;48.184;16.298;2023-02-13T07:50:59;101504.97;;;4.86;92.17
43503;BME280;29098;48.184;16.298;2023-02-13T07:53:24;101500.47;;;4.88;91.62
43503;BME280;29098;48.184;16.298;2023-02-13T07:55:50;101507.47;;;4.87;91.80
43503;BME280;29098;48.184;16.298;2023-02-13T07:58:15;101506.38;;;4.91;91.51
43503;BME280;29098;48.184;16.298;2023-02-13T08:00:40;101502.78;;;4.78;91.50
43503;BME280;29098;48.184;16.298;2023-02-13T08:03:06;101500.19;;;4.92;91.28
43503;BME280;29098;48.184;16.298;2023-02-13T08:05:31;101506.91;;;4.97;91.26
43503;BME280;29098;48.184;16.298;2023-02-13T08:07:57;101507.31;;;5.05;90.35
43503;BME280;29098;48.184;16.298;2023-02-13T08:10:23;101503.00;;;5.04;90.72
43503;BME280;29098;48.184;16.298;2023-02-13T08:13:07;101502.09;;;5.05;90.27
43503;BME280;29098;48.184;16.298;2023-02-13T08:15:33;101506.19;;;5.09;90.12
43503;BME280;29098;48.184;16.298;2023-02-13T08:17:58;101509.00;;;5.06;90.18
43503;BME280;29098;48.184;16.298;2023-02-13T08:20:24;101509.19;;;5.17;89.97
43503;BME280;29098;48.184;16.298;2023-02-13T08:22:49;101508.06;;;5.07;89.95
43503;BME280;29098;48.184;16.298;2023-02-13T08:25:15;101500.97;;;5.09;89.88
43503;BME280;29098;48.184;16.298;2023-02-13T08:27:40;101508.81;;;5.24;89.36
43503;BME280;29098;48.184;16.298;2023-02-13T08:30:06;101504.25;;;5.27;89.13
43503;BME280;29098;48.184;16.298;2023-02-13T08:32:32;101509.00;;;5.35;89.07
43503;BME280;29098;48.184;16.298;2023-02-13T08:34:57;101510.50;;;5.25;89.16
43503;BME280;29098;48.184;16.298;2023-02-13T08:37:22;101505.84;;;5.30;89.46
43503;BME280;29098;48.184;16.298;2023-02-13T08:39:48;101506.38;;;5.35;88.69
43503;BME280;29098;48.184;16.298;2023-02-13T08:42:14;101501.72;;;5.40;89.36
43503;BME280;29098;48.184;16.298;2023-02-13T08:44:39;101507.22;;;5.35;89.21
43503;BME280;29098;48.184;16.298;2023-02-13T08:47:06;101514.13;;;5.37;89.47
43503;BME280;29098;48.184;16.298;2023-02-13T08:49:32;101520.75;;;5.42;88.91
43503;BME280;29098;48.184;16.298;2023-02-13T08:51:58;101511.78;;;5.61;88.17
43503;BME280;29098;48.184;16.298;2023-02-13T08:54:23;101511.06;;;5.59;87.99
43503;BME280;29098;48.184;16.298;2023-02-13T08:56:49;101514.88;;;5.53;88.41
43503;BME280;29098;48.184;16.298;2023-02-13T08:59:14;101512.53;;;5.48;88.70
43503;BME280;29098;48.184;16.298;2023-02-13T09:01:39;101519.16;;;5.54;88.41
43503;BME280;29098;48.184;16.298;2023-02-13T09:04:05;101517.03;;;5.61;87.68
43503;BME280;29098;48.184;16.298;2023-02-13T09:06:30;101517.97;;;5.60;88.00
43503;BME280;29098;48.184;16.298;2023-02-13T09:08:56;101515.06;;;5.65;88.34
43503;BME280;29098;48.184;16.298;2023-02-13T09:11:21;101512.81;;;5.73;87.50
43503;BME280;29098;48.184;16.298;2023-02-13T09:13:47;101521.88;;;5.67;87.84
43503;BME280;29098;48.184;16.298;2023-02-13T09:16:13;101512.63;;;5.61;88.26
43503;BME280;29098;48.184;16.298;2023-02-13T09:18:38;101519.44;;;5.64;88.53
43503;BME280;29098;48.184;16.298;2023-02-13T09:21:05;101519.25;;;5.67;88.57
43503;BME280;29098;48.184;16.298;2023-02-13T09:23:31;101517.81;;;5.76;88.20
43503;BME280;29098;48.184;16.298;2023-02-13T09:25:58;101515.69;;;5.83;87.75
43503;BME280;29098;48.184;16.298;2023-02-13T09:28:23;101518.97;;;5.72;88.19
43503;BME280;29098;48.184;16.298;2023-02-13T09:30:49;101518.19;;;5.84;87.77
43503;BME280;29098;48.184;16.298;2023-02-13T09:33:14;101528.38;;;5.89;87.97
43503;BME280;29098;48.184;16.298;2023-02-13T09:35:39;101525.38;;;5.81;88.13
43503;BME280;29098;48.184;16.298;2023-02-13T09:38:06;101527.25;;;5.93;87.69
43503;BME280;29098;48.184;16.298;2023-02-13T09:40:34;101527.91;;;5.82;88.00
43503;BME280;29098;48.184;16.298;2023-02-13T09:43:06;101533.81;;;5.86;88.19
43503;BME280;29098;48.184;16.298;2023-02-13T09:45:34;101543.53;;;5.84;88.35
43503;BME280;29098;48.184;16.298;2023-02-13T09:48:00;101541.88;;;5.83;88.74
43503;BME280;29098;48.184;16.298;2023-02-13T09:50:30;101533.81;;;5.86;88.65
43503;BME280;29098;48.184;16.298;2023-02-13T09:52:55;101537.06;;;5.89;88.28
43503;BME280;29098;48.184;16.298;2023-02-13T09:55:23;101534.81;;;5.98;87.92
43503;BME280;29098;48.184;16.298;2023-02-13T10:00:36;101533.72;;;5.87;88.79
43503;BME280;29098;48.184;16.298;2023-02-13T10:13:16;101538.44;;;5.95;89.14
43503;BME280;29098;48.184;16.298;2023-02-13T10:15:52;101536.78;;;5.94;89.29
43503;BME280;29098;48.184;16.298;2023-02-13T10:18:20;101538.56;;;5.94;89.31
43503;BME280;29098;48.184;16.298;2023-02-13T10:20:51;101535.44;;;6.01;88.91
43503;BME280;29098;48.184;16.298;2023-02-13T10:23:18;101541.06;;;5.95;89.33
43503;BME280;29098;48.184;16.298;2023-02-13T10:25:59;101536.31;;;6.16;88.45
43503;BME280;29098;48.184;16.298;2023-02-13T10:28:38;101534.88;;;6.11;88.64
43503;BME280;29098;48.184;16.298;2023-02-13T10:31:11;101530.28;;;6.14;88.30
43503;BME280;29098;48.184;16.298;2023-02-13T10:38:47;101520.63;;;6.29;88.02
43503;BME280;29098;48.184;16.298;2023-02-13T10:48:59;101496.47;;;6.52;86.93
43503;BME280;29098;48.184;16.298;2023-02-13T10:51:32;101495.03;;;6.61;85.95
43503;BME280;29098;48.184;16.298;2023-02-13T10:54:09;101492.72;;;6.56;85.56
43503;BME280;29098;48.184;16.298;2023-02-13T10:59:25;101492.63;;;6.83;84.58
43503;BME280;29098;48.184;16.298;2023-02-13T11:01:55;101493.38;;;6.85;83.80
43503;BME280;29098;48.184;16.298;2023-02-13T11:04:22;101486.84;;;6.78;83.38
43503;BME280;29098;48.184;16.298;2023-02-13T11:09:19;101484.69;;;6.98;83.45
43503;BME280;29098;48.184;16.298;2023-02-13T11:11:44;101480.97;;;7.01;82.52
43503;BME280;29098;48.184;16.298;2023-02-13T11:16:39;101480.16;;;7.00;82.55
43503;BME280;29098;48.184;16.298;2023-02-13T11:19:05;101481.59;;;7.04;82.84
43503;BME280;29098;48.184;16.298;2023-02-13T11:21:32;101480.47;;;7.08;82.78
43503;BME280;29098;48.184;16.298;2023-02-13T11:23:59;101478.44;;;7.25;82.21
43503;BME280;29098;48.184;16.298;2023-02-13T11:28:52;101474.66;;;7.16;80.30
43503;BME280;29098;48.184;16.298;2023-02-13T11:31:33;101472.06;;;7.16;80.87
43503;BME280;29098;48.184;16.298;2023-02-13T11:36:41;101476.69;;;7.25;80.14
43503;BME280;29098;48.184;16.298;2023-02-13T11:39:16;101478.66;;;7.35;79.35
43503;BME280;29098;48.184;16.298;2023-02-13T11:41:43;101475.31;;;7.33;79.01
43503;BME280;29098;48.184;16.298;2023-02-13T11:44:19;101472.69;;;7.20;80.26
43503;BME280;29098;48.184;16.298;2023-02-13T11:46:47;101463.13;;;7.19;79.68
43503;BME280;29098;48.184;16.298;2023-02-13T11:49:17;101470.81;;;7.22;80.29
43503;BME280;29098;48.184;16.298;2023-02-13T11:51:44;101479.72;;;7.19;80.46
43503;BME280;29098;48.184;16.298;2023-02-13T11:56:52;101479.28;;;7.38;78.73
43503;BME280;29098;48.184;16.298;2023-02-13T11:59:20;101475.31;;;7.33;78.92
43503;BME280;29098;48.184;16.298;2023-02-13T12:01:46;101468.47;;;7.30;79.24
43503;BME280;29098;48.184;16.298;2023-02-13T12:04:17;101472.78;;;7.31;79.39
43503;BME280;29098;48.184;16.298;2023-02-13T12:09:23;101464.97;;;7.43;78.91
43503;BME280;29098;48.184;16.298;2023-02-13T12:11:50;101468.56;;;7.42;75.50
43503;BME280;29098;48.184;16.298;2023-02-13T12:14:19;101463.88;;;7.34;75.86
43503;BME280;29098;48.184;16.298;2023-02-13T12:19:16;101465.94;;;7.42;75.55
43503;BME280;29098;48.184;16.298;2023-02-13T12:27:08;101445.34;;;7.48;75.23
43503;BME280;29098;48.184;16.298;2023-02-13T12:29:45;101446.94;;;7.51;74.72
43503;BME280;29098;48.184;16.298;2023-02-13T12:32:17;101437.47;;;7.48;75.02
43503;BME280;29098;48.184;16.298;2023-02-13T12:37:26;101437.09;;;7.66;73.96
43503;BME280;29098;48.184;16.298;2023-02-13T12:42:41;101426.31;;;7.58;74.64
43503;BME280;29098;48.184;16.298;2023-02-13T12:45:24;101432.19;;;7.86;73.17
43503;BME280;29098;48.184;16.298;2023-02-13T12:48:11;101434.22;;;7.82;73.73
43503;BME280;29098;48.184;16.298;2023-02-13T12:51:24;101435.22;;;7.92;71.81
43503;BME280;29098;48.184;16.298;2023-02-13T12:53:37;101431.25;;;7.87;71.69
43503;BME280;29098;48.184;16.298;2023-02-13T12:58:56;101418.75;;;8.02;70.50
43503;BME280;29098;48.184;16.298;2023-02-13T13:16:50;101421.72;;;9.14;66.59
43503;BME280;29098;48.184;16.298;2023-02-13T13:24:39;101428.09;;;10.00;62.63
43503;BME280;29098;48.184;16.298;2023-02-13T13:27:14;101426.44;;;9.99;62.12
43503;BME280;29098;48.184;16.298;2023-02-13T13:29:42;101421.03;;;9.68;62.91
43503;BME280;29098;48.184;16.298;2023-02-13T13:32:10;101419.88;;;9.49;64.05
43503;BME280;29098;48.184;16.298;2023-02-13T13:34:38;101419.81;;;9.72;63.39
43503;BME280;29098;48.184;16.298;2023-02-13T13:37:05;101415.84;;;9.34;64.06
43503;BME280;29098;48.184;16.298;2023-02-13T13:42:10;101409.63;;;9.12;65.22
43503;BME280;29098;48.184;16.298;2023-02-13T13:52:17;101411.06;;;8.82;64.83
43503;BME280;29098;48.184;16.298;2023-02-13T13:54:43;101407.97;;;8.88;64.81
43503;BME280;29098;48.184;16.298;2023-02-13T13:57:10;101419.91;;;8.81;65.29
43503;BME280;29098;48.184;16.298;2023-02-13T14:07:24;101404.91;;;8.35;64.00
43503;BME280;29098;48.184;16.298;2023-02-13T14:09:50;101413.22;;;8.54;64.29
43503;BME280;29098;48.184;16.298;2023-02-13T14:14:50;101408.13;;;8.50;63.80
43503;BME280;29098;48.184;16.298;2023-02-13T14:20:02;101398.78;;;8.35;65.27
43503;BME280;29098;48.184;16.298;2023-02-13T14:22:32;101402.16;;;8.37;65.79
43503;BME280;29098;48.184;16.298;2023-02-13T14:24:59;101400.72;;;8.33;66.52
43503;BME280;29098;48.184;16.298;2023-02-13T14:27:33;101399.75;;;8.34;67.27
43503;BME280;29098;48.184;16.298;2023-02-13T14:30:01;101396.88;;;8.26;67.78
43503;BME280;29098;48.184;16.298;2023-02-13T14:34:55;101399.88;;;8.32;67.20
43503;BME280;29098;48.184;16.298;2023-02-13T14:37:37;101395.31;;;8.23;66.73
43503;BME280;29098;48.184;16.298;2023-02-13T14:40:12;101396.41;;;8.32;66.64
43503;BME280;29098;48.184;16.298;2023-02-13T14:45:23;101398.69;;;8.25;66.56
43503;BME280;29098;48.184;16.298;2023-02-13T14:47:54;101400.56;;;8.23;66.97
43503;BME280;29098;48.184;16.298;2023-02-13T14:50:23;101396.59;;;8.17;66.50
43503;BME280;29098;48.184;16.298;2023-02-13T14:52:49;101402.56;;;8.08;66.80
43503;BME280;29098;48.184;16.298;2023-02-13T14:55:32;101395.19;;;8.13;66.81
43503;BME280;29098;48.184;16.298;2023-02-13T15:00:40;101388.00;;;8.15;67.41
43503;BME280;29098;48.184;16.298;2023-02-13T15:03:16;101390.59;;;8.04;67.24
43503;BME280;29098;48.184;16.298;2023-02-13T15:05:47;101389.31;;;8.09;67.16
43503;BME280;29098;48.184;16.298;2023-02-13T15:08:25;101388.91;;;8.03;67.34
43503;BME280;29098;48.184;16.298;2023-02-13T15:10:52;101384.47;;;7.92;67.54
43503;BME280;29098;48.184;16.298;2023-02-13T15:15:50;101387.31;;;7.89;67.84
43503;BME280;29098;48.184;16.298;2023-02-13T15:18:18;101382.91;;;7.89;67.95
43503;BME280;29098;48.184;16.298;2023-02-13T15:20:43;101380.69;;;8.07;67.07